sensor_id;sensor_type;location;lat;lon;timestamp;temperature;humidity
72883;DHT22;61017;37.812;-122.286;2023-02-22T00:01:35;13.80;66.40
72883;DHT22;61017;37.812;-122.286;2023-02-22T00:03:28;13.80;66.60
72883;DHT22;61017;37.812;-122.286;2023-02-22T00:05:19;13.80;66.60
72883;DHT22;61017;37.812;-122.286;2023-02-22T00:07:11;13.80;66.60
72883;DHT22;61017;37.812;-122.286;2023-02-22T00:09:02;13.80;66.80
72883;DHT22;61017;37.812;-122.286;2023-02-22T00:11:00;13.80;66.50
72883;DHT22;61017;37.812;-122.286;2023-02-22T00:12:54;13.80;66.60
72883;DHT22;61017;37.812;-122.286;2023-02-22T00:14:46;13.80;66.50
72883;DHT22;61017;37.812;-122.286;2023-02-22T00:16:37;13.80;66.50
72883;DHT22;61017;37.812;-122.286;2023-02-22T00:18:32;13.80;66.50
72883;DHT22;61017;37.812;-122.286;2023-02-22T00:20:26;13.80;66.30
72883;DHT22;61017;37.812;-122.286;2023-02-22T00:22:17;13.80;66.00
72883;DHT22;61017;37.812;-122.286;2023-02-22T00:24:09;13.80;65.40
72883;DHT22;61017;37.812;-122.286;2023-02-22T00:26:00;13.80;65.40
72883;DHT22;61017;37.812;-122.286;2023-02-22T00:27:54;13.80;65.80
72883;DHT22;61017;37.812;-122.286;2023-02-22T00:29:53;13.70;66.00
72883;DHT22;61017;37.812;-122.286;2023-02-22T00:31:47;13.80;65.00
72883;DHT22;61017;37.812;-122.286;2023-02-22T00:33:48;13.80;64.90
72883;DHT22;61017;37.812;-122.286;2023-02-22T00:35:39;13.80;65.00
72883;DHT22;61017;37.812;-122.286;2023-02-22T00:37:37;13.80;65.30
72883;DHT22;61017;37.812;-122.286;2023-02-22T00:39:49;13.80;64.80
72883;DHT22;61017;37.812;-122.286;2023-02-22T00:41:40;13.80;64.60
72883;DHT22;61017;37.812;-122.286;2023-02-22T00:43:31;13.80;64.30
72883;DHT22;61017;37.812;-122.286;2023-02-22T00:45:26;13.80;64.10
72883;DHT22;61017;37.812;-122.286;2023-02-22T00:49:29;13.70;64.00
72883;DHT22;61017;37.812;-122.286;2023-02-22T00:51:21;13.80;64.00
72883;DHT22;61017;37.812;-122.286;2023-02-22T00:53:17;13.70;62.90
72883;DHT22;61017;37.812;-122.286;2023-02-22T00:55:10;13.70;62.80
72883;DHT22;61017;37.812;-122.286;2023-02-22T00:57:05;13.70;62.90
72883;DHT22;61017;37.812;-122.286;2023-02-22T00:58:56;13.70;63.20
72883;DHT22;61017;37.812;-122.286;2023-02-22T01:00:50;13.70;62.80
72883;DHT22;61017;37.812;-122.286;2023-02-22T01:02:44;13.70;62.60
72883;DHT22;61017;37.812;-122.286;2023-02-22T01:04:35;13.70;62.10
72883;DHT22;61017;37.812;-122.286;2023-02-22T01:06:27;13.70;62.00
72883;DHT22;61017;37.812;-122.286;2023-02-22T01:08:21;13.70;62.20
72883;DHT22;61017;37.812;-122.286;2023-02-22T01:10:17;13.70;62.50
72883;DHT22;61017;37.812;-122.286;2023-02-22T01:14:21;13.70;61.90
72883;DHT22;61017;37.812;-122.286;2023-02-22T01:16:13;13.60;61.90
72883;DHT22;61017;37.812;-122.286;2023-02-22T01:18:04;13.70;62.20
72883;DHT22;61017;37.812;-122.286;2023-02-22T01:19:56;13.60;61.90
72883;DHT22;61017;37.812;-122.286;2023-02-22T01:21:50;13.60;61.70
72883;DHT22;61017;37.812;-122.286;2023-02-22T01:25:55;13.60;61.10
72883;DHT22;61017;37.812;-122.286;2023-02-22T01:27:47;13.60;61.30
72883;DHT22;61017;37.812;-122.286;2023-02-22T01:29:48;13.60;61.50
72883;DHT22;61017;37.812;-122.286;2023-02-22T01:31:40;13.60;61.30
72883;DHT22;61017;37.812;-122.286;2023-02-22T01:33:34;13.60;61.10
72883;DHT22;61017;37.812;-122.286;2023-02-22T01:35:27;13.60;61.10
72883;DHT22;61017;37.812;-122.286;2023-02-22T01:37:29;13.60;61.10
72883;DHT22;61017;37.812;-122.286;2023-02-22T01:39:20;13.60;61.10
72883;DHT22;61017;37.812;-122.286;2023-02-22T01:41:12;13.60;61.10
72883;DHT22;61017;37.812;-122.286;2023-02-22T01:43:49;13.60;61.30
72883;DHT22;61017;37.812;-122.286;2023-02-22T01:47:29;13.50;61.10
72883;DHT22;61017;37.812;-122.286;2023-02-22T01:49:35;13.50;61.40
72883;DHT22;61017;37.812;-122.286;2023-02-22T01:51:33;13.50;61.60
72883;DHT22;61017;37.812;-122.286;2023-02-22T01:53:40;13.50;61.30
72883;DHT22;61017;37.812;-122.286;2023-02-22T01:55:36;13.50;61.10
72883;DHT22;61017;37.812;-122.286;2023-02-22T01:57:31;13.50;61.50
72883;DHT22;61017;37.812;-122.286;2023-02-22T01:59:30;13.50;61.40
72883;DHT22;61017;37.812;-122.286;2023-02-22T02:01:23;13.50;61.60
72883;DHT22;61017;37.812;-122.286;2023-02-22T02:03:22;13.50;61.60
72883;DHT22;61017;37.812;-122.286;2023-02-22T02:05:14;13.50;61.70
72883;DHT22;61017;37.812;-122.286;2023-02-22T02:07:06;13.50;61.60
72883;DHT22;61017;37.812;-122.286;2023-02-22T02:10:50;13.50;61.60
72883;DHT22;61017;37.812;-122.286;2023-02-22T02:12:43;13.50;61.50
72883;DHT22;61017;37.812;-122.286;2023-02-22T02:14:34;13.40;61.20
72883;DHT22;61017;37.812;-122.286;2023-02-22T02:16:33;13.40;61.10
72883;DHT22;61017;37.812;-122.286;2023-02-22T02:18:25;13.40;60.90
72883;DHT22;61017;37.812;-122.286;2023-02-22T02:20:26;13.40;60.80
72883;DHT22;61017;37.812;-122.286;2023-02-22T02:26:48;13.40;60.80
72883;DHT22;61017;37.812;-122.286;2023-02-22T02:31:05;13.40;60.70
72883;DHT22;61017;37.812;-122.286;2023-02-22T02:33:10;13.40;60.70
72883;DHT22;61017;37.812;-122.286;2023-02-22T02:35:11;13.40;60.50
72883;DHT22;61017;37.812;-122.286;2023-02-22T02:37:08;13.40;60.20
72883;DHT22;61017;37.812;-122.286;2023-02-22T02:39:04;13.40;60.50
72883;DHT22;61017;37.812;-122.286;2023-02-22T02:41:02;13.40;60.70
72883;DHT22;61017;37.812;-122.286;2023-02-22T02:45:08;13.40;60.10
72883;DHT22;61017;37.812;-122.286;2023-02-22T02:47:02;13.40;60.30
72883;DHT22;61017;37.812;-122.286;2023-02-22T02:48:56;13.40;60.40
72883;DHT22;61017;37.812;-122.286;2023-02-22T02:50:49;13.40;60.10
72883;DHT22;61017;37.812;-122.286;2023-02-22T02:52:41;13.30;60.20
72883;DHT22;61017;37.812;-122.286;2023-02-22T02:54:33;13.40;60.40
72883;DHT22;61017;37.812;-122.286;2023-02-22T02:56:27;13.40;60.30
72883;DHT22;61017;37.812;-122.286;2023-02-22T02:58:20;13.40;60.30
72883;DHT22;61017;37.812;-122.286;2023-02-22T03:00:12;13.40;60.40
72883;DHT22;61017;37.812;-122.286;2023-02-22T03:22:23;13.30;61.30
72883;DHT22;61017;37.812;-122.286;2023-02-22T03:26:21;13.30;61.10
72883;DHT22;61017;37.812;-122.286;2023-02-22T03:28:13;13.30;61.40
72883;DHT22;61017;37.812;-122.286;2023-02-22T03:30:07;13.30;61.20
72883;DHT22;61017;37.812;-122.286;2023-02-22T03:32:00;13.30;61.00
72883;DHT22;61017;37.812;-122.286;2023-02-22T03:35:58;13.30;61.20
72883;DHT22;61017;37.812;-122.286;2023-02-22T03:37:54;13.30;61.10
72883;DHT22;61017;37.812;-122.286;2023-02-22T03:39:46;13.30;61.40
72883;DHT22;61017;37.812;-122.286;2023-02-22T03:41:42;13.30;61.30
72883;DHT22;61017;37.812;-122.286;2023-02-22T03:43:38;13.30;60.90
72883;DHT22;61017;37.812;-122.286;2023-02-22T03:45:30;13.30;60.90
72883;DHT22;61017;37.812;-122.286;2023-02-22T03:47:24;13.30;60.50
72883;DHT22;61017;37.812;-122.286;2023-02-22T03:49:19;13.30;60.50
72883;DHT22;61017;37.812;-122.286;2023-02-22T03:51:14;13.30;60.60
72883;DHT22;61017;37.812;-122.286;2023-02-22T03:53:05;13.30;60.80
72883;DHT22;61017;37.812;-122.286;2023-02-22T03:54:57;13.30;60.60
72883;DHT22;61017;37.812;-122.286;2023-02-22T03:56:51;13.30;60.80
72883;DHT22;61017;37.812;-122.286;2023-02-22T03:58:46;13.30;60.50
72883;DHT22;61017;37.812;-122.286;2023-02-22T04:00:38;13.30;60.10
72883;DHT22;61017;37.812;-122.286;2023-02-22T04:02:29;13.30;60.10
72883;DHT22;61017;37.812;-122.286;2023-02-22T04:04:24;13.30;59.90
72883;DHT22;61017;37.812;-122.286;2023-02-22T04:06:15;13.30;59.70
72883;DHT22;61017;37.812;-122.286;2023-02-22T04:08:07;13.30;60.10
72883;DHT22;61017;37.812;-122.286;2023-02-22T04:09:58;13.30;59.60
72883;DHT22;61017;37.812;-122.286;2023-02-22T04:11:50;13.30;59.70
72883;DHT22;61017;37.812;-122.286;2023-02-22T04:13:41;13.30;59.90
72883;DHT22;61017;37.812;-122.286;2023-02-22T04:15:32;13.30;59.70
72883;DHT22;61017;37.812;-122.286;2023-02-22T04:17:24;13.30;59.50
72883;DHT22;61017;37.812;-122.286;2023-02-22T04:19:24;13.30;59.40
72883;DHT22;61017;37.812;-122.286;2023-02-22T04:21:15;13.30;59.70
72883;DHT22;61017;37.812;-122.286;2023-02-22T04:23:09;13.30;59.50
72883;DHT22;61017;37.812;-122.286;2023-02-22T04:25:01;13.30;59.10
72883;DHT22;61017;37.812;-122.286;2023-02-22T04:26:52;13.30;58.90
72883;DHT22;61017;37.812;-122.286;2023-02-22T04:28:44;13.30;58.90
72883;DHT22;61017;37.812;-122.286;2023-02-22T04:30:35;13.30;59.00
72883;DHT22;61017;37.812;-122.286;2023-02-22T04:32:27;13.30;58.60
72883;DHT22;61017;37.812;-122.286;2023-02-22T04:34:18;13.30;58.50
72883;DHT22;61017;37.812;-122.286;2023-02-22T04:36:10;13.30;58.10
72883;DHT22;61017;37.812;-122.286;2023-02-22T04:38:01;13.30;58.00
72883;DHT22;61017;37.812;-122.286;2023-02-22T04:39:59;13.30;58.30
72883;DHT22;61017;37.812;-122.286;2023-02-22T04:41:53;13.30;58.50
72883;DHT22;61017;37.812;-122.286;2023-02-22T04:43:44;13.30;58.50
72883;DHT22;61017;37.812;-122.286;2023-02-22T04:45:43;13.30;58.50
72883;DHT22;61017;37.812;-122.286;2023-02-22T04:47:35;13.30;58.60
72883;DHT22;61017;37.812;-122.286;2023-02-22T04:49:33;13.20;58.60
72883;DHT22;61017;37.812;-122.286;2023-02-22T04:51:27;13.20;58.40
72883;DHT22;61017;37.812;-122.286;2023-02-22T04:53:21;13.30;58.60
72883;DHT22;61017;37.812;-122.286;2023-02-22T04:55:12;13.20;58.80
72883;DHT22;61017;37.812;-122.286;2023-02-22T04:57:04;13.20;58.90
72883;DHT22;61017;37.812;-122.286;2023-02-22T04:58:55;13.20;59.20
72883;DHT22;61017;37.812;-122.286;2023-02-22T05:00:46;13.20;59.20
72883;DHT22;61017;37.812;-122.286;2023-02-22T05:02:38;13.20;59.30
72883;DHT22;61017;37.812;-122.286;2023-02-22T05:04:29;13.20;59.20
72883;DHT22;61017;37.812;-122.286;2023-02-22T05:06:21;13.20;59.30
72883;DHT22;61017;37.812;-122.286;2023-02-22T05:08:12;13.20;59.50
72883;DHT22;61017;37.812;-122.286;2023-02-22T05:10:04;13.20;59.20
72883;DHT22;61017;37.812;-122.286;2023-02-22T05:11:55;13.20;59.30
72883;DHT22;61017;37.812;-122.286;2023-02-22T05:13:49;13.10;59.20
72883;DHT22;61017;37.812;-122.286;2023-02-22T05:15:43;13.10;59.30
72883;DHT22;61017;37.812;-122.286;2023-02-22T05:17:35;13.20;59.60
72883;DHT22;61017;37.812;-122.286;2023-02-22T05:19:26;13.20;59.60
72883;DHT22;61017;37.812;-122.286;2023-02-22T05:21:17;13.20;59.60
72883;DHT22;61017;37.812;-122.286;2023-02-22T05:23:09;13.20;59.50
72883;DHT22;61017;37.812;-122.286;2023-02-22T05:25:03;13.20;59.60
72883;DHT22;61017;37.812;-122.286;2023-02-22T05:26:54;13.20;59.50
72883;DHT22;61017;37.812;-122.286;2023-02-22T05:28:46;13.10;59.30
72883;DHT22;61017;37.812;-122.286;2023-02-22T05:30:37;13.20;59.40
72883;DHT22;61017;37.812;-122.286;2023-02-22T05:32:35;13.20;59.30
72883;DHT22;61017;37.812;-122.286;2023-02-22T05:34:26;13.20;59.20
72883;DHT22;61017;37.812;-122.286;2023-02-22T05:36:18;13.20;59.30
72883;DHT22;61017;37.812;-122.286;2023-02-22T05:38:17;13.20;59.60
72883;DHT22;61017;37.812;-122.286;2023-02-22T05:40:12;13.20;59.10
72883;DHT22;61017;37.812;-122.286;2023-02-22T05:42:04;13.10;59.10
72883;DHT22;61017;37.812;-122.286;2023-02-22T05:43:55;13.20;59.20
72883;DHT22;61017;37.812;-122.286;2023-02-22T05:45:46;13.10;59.20
72883;DHT22;61017;37.812;-122.286;2023-02-22T05:47:38;13.10;59.10
72883;DHT22;61017;37.812;-122.286;2023-02-22T05:49:29;13.10;59.10
72883;DHT22;61017;37.812;-122.286;2023-02-22T05:51:21;13.10;58.90
72883;DHT22;61017;37.812;-122.286;2023-02-22T05:53:21;13.10;58.90
72883;DHT22;61017;37.812;-122.286;2023-02-22T05:55:15;13.10;59.10
72883;DHT22;61017;37.812;-122.286;2023-02-22T05:59:42;13.10;58.80
72883;DHT22;61017;37.812;-122.286;2023-02-22T06:01:33;13.10;58.90
72883;DHT22;61017;37.812;-122.286;2023-02-22T06:03:34;13.10;59.20
72883;DHT22;61017;37.812;-122.286;2023-02-22T06:05:40;13.10;59.20
72883;DHT22;61017;37.812;-122.286;2023-02-22T06:07:31;13.10;59.00
72883;DHT22;61017;37.812;-122.286;2023-02-22T06:09:31;13.10;59.20
72883;DHT22;61017;37.812;-122.286;2023-02-22T06:11:23;13.10;59.20
72883;DHT22;61017;37.812;-122.286;2023-02-22T06:15:26;13.10;59.30
72883;DHT22;61017;37.812;-122.286;2023-02-22T06:17:25;13.10;59.00
72883;DHT22;61017;37.812;-122.286;2023-02-22T06:19:17;13.10;58.90
72883;DHT22;61017;37.812;-122.286;2023-02-22T06:21:10;13.10;59.20
72883;DHT22;61017;37.812;-122.286;2023-02-22T06:23:04;13.10;59.10
72883;DHT22;61017;37.812;-122.286;2023-02-22T06:25:15;13.10;59.20
72883;DHT22;61017;37.812;-122.286;2023-02-22T06:27:09;13.10;59.00
72883;DHT22;61017;37.812;-122.286;2023-02-22T06:29:03;13.10;59.20
72883;DHT22;61017;37.812;-122.286;2023-02-22T06:30:54;13.00;59.00
72883;DHT22;61017;37.812;-122.286;2023-02-22T06:35:06;13.10;59.20
72883;DHT22;61017;37.812;-122.286;2023-02-22T06:36:58;13.10;59.10
72883;DHT22;61017;37.812;-122.286;2023-02-22T06:38:49;13.00;58.80
72883;DHT22;61017;37.812;-122.286;2023-02-22T06:40:40;13.00;58.80
72883;DHT22;61017;37.812;-122.286;2023-02-22T06:42:34;13.00;59.00
72883;DHT22;61017;37.812;-122.286;2023-02-22T06:44:26;13.10;58.90
72883;DHT22;61017;37.812;-122.286;2023-02-22T06:46:17;13.00;58.60
72883;DHT22;61017;37.812;-122.286;2023-02-22T06:48:23;13.00;58.90
72883;DHT22;61017;37.812;-122.286;2023-02-22T06:50:25;13.00;59.00
72883;DHT22;61017;37.812;-122.286;2023-02-22T06:52:27;13.00;58.90
72883;DHT22;61017;37.812;-122.286;2023-02-22T06:54:22;13.10;58.80
72883;DHT22;61017;37.812;-122.286;2023-02-22T06:56:13;13.10;58.80
72883;DHT22;61017;37.812;-122.286;2023-02-22T06:58:10;13.00;59.00
72883;DHT22;61017;37.812;-122.286;2023-02-22T07:02:30;13.10;58.80
72883;DHT22;61017;37.812;-122.286;2023-02-22T07:04:22;13.10;59.00
72883;DHT22;61017;37.812;-122.286;2023-02-22T07:06:13;13.10;59.00
72883;DHT22;61017;37.812;-122.286;2023-02-22T07:08:05;13.10;59.10
72883;DHT22;61017;37.812;-122.286;2023-02-22T07:09:57;13.10;59.00
72883;DHT22;61017;37.812;-122.286;2023-02-22T07:11:48;13.10;59.10
72883;DHT22;61017;37.812;-122.286;2023-02-22T07:13:55;13.10;59.00
72883;DHT22;61017;37.812;-122.286;2023-02-22T07:15:49;13.10;59.10
72883;DHT22;61017;37.812;-122.286;2023-02-22T07:17:43;13.10;59.30
72883;DHT22;61017;37.812;-122.286;2023-02-22T07:19:38;13.10;59.00
72883;DHT22;61017;37.812;-122.286;2023-02-22T07:23:40;13.10;59.00
72883;DHT22;61017;37.812;-122.286;2023-02-22T07:25:35;13.10;59.00
72883;DHT22;61017;37.812;-122.286;2023-02-22T07:27:26;13.10;58.80
72883;DHT22;61017;37.812;-122.286;2023-02-22T07:29:18;13.10;58.80
72883;DHT22;61017;37.812;-122.286;2023-02-22T07:31:12;13.10;58.80
72883;DHT22;61017;37.812;-122.286;2023-02-22T07:33:07;13.10;58.80
72883;DHT22;61017;37.812;-122.286;2023-02-22T07:34:59;13.10;58.80
72883;DHT22;61017;37.812;-122.286;2023-02-22T07:36:53;13.10;58.60
72883;DHT22;61017;37.812;-122.286;2023-02-22T07:38:51;13.10;58.60
72883;DHT22;61017;37.812;-122.286;2023-02-22T07:40:45;13.00;58.60
72883;DHT22;61017;37.812;-122.286;2023-02-22T07:42:52;13.00;58.40
72883;DHT22;61017;37.812;-122.286;2023-02-22T07:46:55;13.00;58.50
72883;DHT22;61017;37.812;-122.286;2023-02-22T07:48:47;13.00;59.00
72883;DHT22;61017;37.812;-122.286;2023-02-22T07:50:39;13.00;58.40
72883;DHT22;61017;37.812;-122.286;2023-02-22T07:52:33;13.10;58.50
72883;DHT22;61017;37.812;-122.286;2023-02-22T07:54:34;13.00;58.40
72883;DHT22;61017;37.812;-122.286;2023-02-22T07:56:25;13.10;58.30
72883;DHT22;61017;37.812;-122.286;2023-02-22T07:58:20;13.00;57.90
72883;DHT22;61017;37.812;-122.286;2023-02-22T08:00:15;13.00;58.20
72883;DHT22;61017;37.812;-122.286;2023-02-22T08:02:12;13.00;58.10
72883;DHT22;61017;37.812;-122.286;2023-02-22T08:04:11;13.00;58.00
72883;DHT22;61017;37.812;-122.286;2023-02-22T08:06:06;13.00;58.10
72883;DHT22;61017;37.812;-122.286;2023-02-22T08:07:57;13.00;57.90
72883;DHT22;61017;37.812;-122.286;2023-02-22T08:09:49;13.10;58.00
72883;DHT22;61017;37.812;-122.286;2023-02-22T08:11:40;13.00;57.90
72883;DHT22;61017;37.812;-122.286;2023-02-22T08:13:34;13.00;57.90
72883;DHT22;61017;37.812;-122.286;2023-02-22T08:15:35;13.00;58.10
72883;DHT22;61017;37.812;-122.286;2023-02-22T08:17:44;13.10;58.00
72883;DHT22;61017;37.812;-122.286;2023-02-22T08:19:36;13.00;57.70
72883;DHT22;61017;37.812;-122.286;2023-02-22T08:21:27;13.00;57.60
72883;DHT22;61017;37.812;-122.286;2023-02-22T08:23:20;13.00;57.60
72883;DHT22;61017;37.812;-122.286;2023-02-22T08:25:14;13.00;57.40
72883;DHT22;61017;37.812;-122.286;2023-02-22T08:27:06;13.00;57.60
72883;DHT22;61017;37.812;-122.286;2023-02-22T08:29:00;13.00;57.70
72883;DHT22;61017;37.812;-122.286;2023-02-22T08:30:59;13.00;57.80
72883;DHT22;61017;37.812;-122.286;2023-02-22T08:32:50;13.00;57.50
72883;DHT22;61017;37.812;-122.286;2023-02-22T08:34:42;13.00;57.80
72883;DHT22;61017;37.812;-122.286;2023-02-22T08:36:33;13.00;57.60
72883;DHT22;61017;37.812;-122.286;2023-02-22T08:38:28;13.00;57.70
72883;DHT22;61017;37.812;-122.286;2023-02-22T08:40:23;12.90;57.50
72883;DHT22;61017;37.812;-122.286;2023-02-22T08:42:17;13.00;57.60
72883;DHT22;61017;37.812;-122.286;2023-02-22T08:44:09;12.90;57.60
72883;DHT22;61017;37.812;-122.286;2023-02-22T08:46:00;12.90;57.70
72883;DHT22;61017;37.812;-122.286;2023-02-22T08:47:52;13.00;57.60
72883;DHT22;61017;37.812;-122.286;2023-02-22T08:49:43;13.00;57.60
72883;DHT22;61017;37.812;-122.286;2023-02-22T08:51:42;12.90;57.50
72883;DHT22;61017;37.812;-122.286;2023-02-22T08:55:51;13.00;57.60
72883;DHT22;61017;37.812;-122.286;2023-02-22T08:57:45;13.00;57.60
72883;DHT22;61017;37.812;-122.286;2023-02-22T08:59:57;13.00;57.40
72883;DHT22;61017;37.812;-122.286;2023-02-22T09:01:48;12.90;56.60
72883;DHT22;61017;37.812;-122.286;2023-02-22T09:03:39;13.00;57.30
72883;DHT22;61017;37.812;-122.286;2023-02-22T09:05:31;13.00;57.10
72883;DHT22;61017;37.812;-122.286;2023-02-22T09:07:22;12.90;56.30
72883;DHT22;61017;37.812;-122.286;2023-02-22T09:09:13;13.00;56.60
72883;DHT22;61017;37.812;-122.286;2023-02-22T09:11:05;12.90;56.70
72883;DHT22;61017;37.812;-122.286;2023-02-22T09:12:56;13.00;56.90
72883;DHT22;61017;37.812;-122.286;2023-02-22T09:14:48;13.00;56.70
72883;DHT22;61017;37.812;-122.286;2023-02-22T09:16:39;12.90;56.70
72883;DHT22;61017;37.812;-122.286;2023-02-22T09:18:30;12.90;56.60
72883;DHT22;61017;37.812;-122.286;2023-02-22T09:20:22;12.90;56.80
72883;DHT22;61017;37.812;-122.286;2023-02-22T09:22:14;12.90;56.90
72883;DHT22;61017;37.812;-122.286;2023-02-22T09:24:06;12.90;56.50
72883;DHT22;61017;37.812;-122.286;2023-02-22T09:25:57;12.90;56.70
72883;DHT22;61017;37.812;-122.286;2023-02-22T09:27:49;12.90;56.70
72883;DHT22;61017;37.812;-122.286;2023-02-22T09:29:41;12.90;56.90
72883;DHT22;61017;37.812;-122.286;2023-02-22T09:31:33;12.90;56.90
72883;DHT22;61017;37.812;-122.286;2023-02-22T09:33:25;12.90;57.10
72883;DHT22;61017;37.812;-122.286;2023-02-22T09:35:16;12.90;56.90
72883;DHT22;61017;37.812;-122.286;2023-02-22T09:37:08;12.90;56.90
72883;DHT22;61017;37.812;-122.286;2023-02-22T09:38:59;12.90;57.20
72883;DHT22;61017;37.812;-122.286;2023-02-22T09:40:59;13.00;57.30
72883;DHT22;61017;37.812;-122.286;2023-02-22T09:45:26;12.90;56.90
72883;DHT22;61017;37.812;-122.286;2023-02-22T09:47:21;12.90;57.10
72883;DHT22;61017;37.812;-122.286;2023-02-22T09:51:08;12.90;57.20
72883;DHT22;61017;37.812;-122.286;2023-02-22T09:53:44;13.00;57.40
72883;DHT22;61017;37.812;-122.286;2023-02-22T09:55:38;13.00;57.10
72883;DHT22;61017;37.812;-122.286;2023-02-22T09:57:29;13.00;57.00
72883;DHT22;61017;37.812;-122.286;2023-02-22T09:59:34;12.90;57.00
72883;DHT22;61017;37.812;-122.286;2023-02-22T10:01:28;12.90;56.90
72883;DHT22;61017;37.812;-122.286;2023-02-22T10:03:23;12.90;57.10
72883;DHT22;61017;37.812;-122.286;2023-02-22T10:05:33;12.90;57.10
72883;DHT22;61017;37.812;-122.286;2023-02-22T10:09:17;12.90;57.10
72883;DHT22;61017;37.812;-122.286;2023-02-22T10:11:12;12.90;57.10
72883;DHT22;61017;37.812;-122.286;2023-02-22T10:25:03;12.90;56.70
72883;DHT22;61017;37.812;-122.286;2023-02-22T10:26:55;12.90;56.90
72883;DHT22;61017;37.812;-122.286;2023-02-22T10:30:49;12.90;56.70
72883;DHT22;61017;37.812;-122.286;2023-02-22T10:32:43;12.90;56.60
72883;DHT22;61017;37.812;-122.286;2023-02-22T10:34:37;12.80;56.70
72883;DHT22;61017;37.812;-122.286;2023-02-22T10:36:29;12.80;56.60
72883;DHT22;61017;37.812;-122.286;2023-02-22T10:38:24;12.80;56.60
72883;DHT22;61017;37.812;-122.286;2023-02-22T10:40:17;12.80;56.70
72883;DHT22;61017;37.812;-122.286;2023-02-22T10:42:08;12.80;56.80
72883;DHT22;61017;37.812;-122.286;2023-02-22T10:44:00;12.80;56.80
72883;DHT22;61017;37.812;-122.286;2023-02-22T10:45:52;12.80;56.70
72883;DHT22;61017;37.812;-122.286;2023-02-22T10:47:45;12.80;57.00
72883;DHT22;61017;37.812;-122.286;2023-02-22T10:49:39;12.80;57.10
72883;DHT22;61017;37.812;-122.286;2023-02-22T10:51:31;12.90;57.30
72883;DHT22;61017;37.812;-122.286;2023-02-22T10:53:22;12.90;57.70
72883;DHT22;61017;37.812;-122.286;2023-02-22T10:55:16;12.90;56.90
72883;DHT22;61017;37.812;-122.286;2023-02-22T10:57:08;12.80;56.90
72883;DHT22;61017;37.812;-122.286;2023-02-22T10:59:02;12.80;57.10
72883;DHT22;61017;37.812;-122.286;2023-02-22T11:00:54;12.80;57.00
72883;DHT22;61017;37.812;-122.286;2023-02-22T11:03:28;12.80;57.10
72883;DHT22;61017;37.812;-122.286;2023-02-22T11:05:00;12.80;57.10
72883;DHT22;61017;37.812;-122.286;2023-02-22T11:08:49;12.90;57.20
72883;DHT22;61017;37.812;-122.286;2023-02-22T11:10:40;12.90;57.20
72883;DHT22;61017;37.812;-122.286;2023-02-22T11:12:33;12.90;57.30
72883;DHT22;61017;37.812;-122.286;2023-02-22T11:14:25;12.90;57.20
72883;DHT22;61017;37.812;-122.286;2023-02-22T11:16:19;12.90;57.40
72883;DHT22;61017;37.812;-122.286;2023-02-22T11:18:27;12.90;57.50
72883;DHT22;61017;37.812;-122.286;2023-02-22T11:20:23;12.90;57.50
72883;DHT22;61017;37.812;-122.286;2023-02-22T11:22:30;12.90;57.40
72883;DHT22;61017;37.812;-122.286;2023-02-22T11:24:22;12.90;57.30
72883;DHT22;61017;37.812;-122.286;2023-02-22T11:26:17;12.90;57.30
72883;DHT22;61017;37.812;-122.286;2023-02-22T11:28:18;12.90;57.40
72883;DHT22;61017;37.812;-122.286;2023-02-22T11:32:16;12.90;57.40
72883;DHT22;61017;37.812;-122.286;2023-02-22T11:34:23;12.90;57.40
72883;DHT22;61017;37.812;-122.286;2023-02-22T11:36:16;12.90;57.40
72883;DHT22;61017;37.812;-122.286;2023-02-22T11:38:21;12.90;57.50
72883;DHT22;61017;37.812;-122.286;2023-02-22T11:40:17;12.80;57.40
72883;DHT22;61017;37.812;-122.286;2023-02-22T11:42:21;12.80;57.50
72883;DHT22;61017;37.812;-122.286;2023-02-22T11:44:29;12.80;57.60
72883;DHT22;61017;37.812;-122.286;2023-02-22T11:46:21;12.80;57.60
72883;DHT22;61017;37.812;-122.286;2023-02-22T11:48:17;12.80;57.70
72883;DHT22;61017;37.812;-122.286;2023-02-22T11:50:10;12.80;57.70
72883;DHT22;61017;37.812;-122.286;2023-02-22T11:52:11;12.80;57.70
72883;DHT22;61017;37.812;-122.286;2023-02-22T12:06:37;12.80;58.00
72883;DHT22;61017;37.812;-122.286;2023-02-22T12:11:12;12.80;58.10
72883;DHT22;61017;37.812;-122.286;2023-02-22T12:13:11;12.90;58.30
72883;DHT22;61017;37.812;-122.286;2023-02-22T12:17:17;12.80;58.00
72883;DHT22;61017;37.812;-122.286;2023-02-22T12:21:02;12.80;58.80
72883;DHT22;61017;37.812;-122.286;2023-02-22T12:23:11;12.80;58.10
72883;DHT22;61017;37.812;-122.286;2023-02-22T12:25:06;12.80;58.30
72883;DHT22;61017;37.812;-122.286;2023-02-22T12:27:01;12.80;58.30
72883;DHT22;61017;37.812;-122.286;2023-02-22T12:28:55;12.80;58.20
72883;DHT22;61017;37.812;-122.286;2023-02-22T12:30:52;12.80;58.20
72883;DHT22;61017;37.812;-122.286;2023-02-22T12:32:47;12.80;58.00
72883;DHT22;61017;37.812;-122.286;2023-02-22T12:34:56;12.80;58.30
72883;DHT22;61017;37.812;-122.286;2023-02-22T12:36:50;12.80;58.30
72883;DHT22;61017;37.812;-122.286;2023-02-22T12:38:43;12.80;58.50
72883;DHT22;61017;37.812;-122.286;2023-02-22T12:44:35;12.80;58.40
72883;DHT22;61017;37.812;-122.286;2023-02-22T12:50:21;12.80;58.40
72883;DHT22;61017;37.812;-122.286;2023-02-22T12:52:15;12.80;58.30
72883;DHT22;61017;37.812;-122.286;2023-02-22T12:58:22;12.80;58.40
72883;DHT22;61017;37.812;-122.286;2023-02-22T13:00:18;12.80;58.30
72883;DHT22;61017;37.812;-122.286;2023-02-22T13:02:21;12.80;58.10
72883;DHT22;61017;37.812;-122.286;2023-02-22T13:04:15;12.80;58.20
72883;DHT22;61017;37.812;-122.286;2023-02-22T13:18:30;12.80;58.40
72883;DHT22;61017;37.812;-122.286;2023-02-22T13:22:20;12.80;58.50
72883;DHT22;61017;37.812;-122.286;2023-02-22T13:24:16;12.80;58.40
72883;DHT22;61017;37.812;-122.286;2023-02-22T13:26:11;12.80;58.40
72883;DHT22;61017;37.812;-122.286;2023-02-22T13:30:00;12.80;58.40
72883;DHT22;61017;37.812;-122.286;2023-02-22T13:32:03;12.80;58.10
72883;DHT22;61017;37.812;-122.286;2023-02-22T13:34:05;12.80;58.00
72883;DHT22;61017;37.812;-122.286;2023-02-22T13:36:03;12.80;57.90
72883;DHT22;61017;37.812;-122.286;2023-02-22T13:46:10;12.70;58.40
72883;DHT22;61017;37.812;-122.286;2023-02-22T13:50:14;12.70;57.60
72883;DHT22;61017;37.812;-122.286;2023-02-22T13:52:10;12.70;57.90
72883;DHT22;61017;37.812;-122.286;2023-02-22T13:55:54;12.70;57.80